createdAt,value
2022-10-18T00:02:02.339Z,1.67
2022-10-18T00:04:29.028Z,1.70
2022-10-18T00:06:55.905Z,1.53
2022-10-18T00:09:22.700Z,1.83
2022-10-18T00:11:49.408Z,1.40
2022-10-18T00:14:16.175Z,1.60
2022-10-18T00:16:42.828Z,1.77
2022-10-18T00:19:09.527Z,1.57
2022-10-18T00:21:36.292Z,1.30
2022-10-18T00:24:03.188Z,1.73
2022-10-18T00:26:30.317Z,1.27
2022-10-18T00:28:58.755Z,1.30
2022-10-18T00:31:33.393Z,1.43
2022-10-18T00:34:04.681Z,1.53
2022-10-18T00:36:32.528Z,1.40
2022-10-18T00:38:59.170Z,1.30
2022-10-18T00:41:27.981Z,1.87
2022-10-18T00:44:11.197Z,1.37
2022-10-18T00:46:39.616Z,1.70
2022-10-18T00:49:33.588Z,1.50
2022-10-18T00:52:08.378Z,1.77
2022-10-18T00:54:37.145Z,1.97
2022-10-18T00:57:03.925Z,1.70
2022-10-18T00:59:30.785Z,1.67
2022-10-18T01:01:57.508Z,1.47
2022-10-18T01:04:24.256Z,1.50
2022-10-18T01:07:15.334Z,1.80
2022-10-18T01:09:58.651Z,1.80
2022-10-18T01:12:42.879Z,1.63
2022-10-18T01:15:24.348Z,1.73
2022-10-18T01:18:12.103Z,1.50
2022-10-18T01:21:06.747Z,1.50
2022-10-18T01:24:00.394Z,1.60
2022-10-18T01:26:45.524Z,1.50
2022-10-18T01:29:35.192Z,1.50
2022-10-18T01:32:03.773Z,1.57
2022-10-18T01:34:32.762Z,1.60
2022-10-18T01:36:59.471Z,1.20
2022-10-18T01:39:28.289Z,1.33
2022-10-18T01:41:55.017Z,1.40
2022-10-18T01:44:23.538Z,1.50
2022-10-18T01:46:50.999Z,1.63
2022-10-18T01:49:17.669Z,1.50
2022-10-18T01:51:44.495Z,1.65
2022-10-18T01:54:11.445Z,1.50
2022-10-18T01:56:52.489Z,1.20
2022-10-18T01:59:45.718Z,1.57
2022-10-18T02:02:18.527Z,1.30
2022-10-18T02:05:07.372Z,1.73
2022-10-18T02:07:42.805Z,2.00
2022-10-18T02:10:32.375Z,1.47
2022-10-18T02:12:59.157Z,1.60
2022-10-18T02:15:33.930Z,1.40
2022-10-18T02:18:01.408Z,1.17
2022-10-18T02:20:28.998Z,1.40
2022-10-18T02:22:56.012Z,1.40
2022-10-18T02:25:25.732Z,1.30
2022-10-18T02:27:52.416Z,1.37
2022-10-18T02:30:20.031Z,1.70
2022-10-18T02:32:52.529Z,1.17
2022-10-18T02:35:28.322Z,1.50
2022-10-18T02:37:55.254Z,1.20
2022-10-18T02:40:21.985Z,2.10
2022-10-18T02:42:50.467Z,1.63
2022-10-18T02:45:17.381Z,1.30
2022-10-18T02:47:44.082Z,1.70
2022-10-18T02:50:10.776Z,1.90
2022-10-18T02:52:37.503Z,1.10
2022-10-18T02:55:04.843Z,1.60
2022-10-18T02:57:31.767Z,2.00
2022-10-18T02:59:58.658Z,1.80
2022-10-18T03:02:25.375Z,1.60
2022-10-18T03:04:52.018Z,1.50
2022-10-18T03:07:18.780Z,1.93
2022-10-18T03:09:45.504Z,1.30
2022-10-18T03:12:12.533Z,1.53
2022-10-18T03:14:39.230Z,1.47
2022-10-18T03:17:05.901Z,1.60
2022-10-18T03:19:32.589Z,2.10
2022-10-18T03:21:59.269Z,1.90
2022-10-18T03:24:25.945Z,1.67
2022-10-18T03:26:52.654Z,1.73
2022-10-18T03:29:19.336Z,1.93
2022-10-18T03:31:46.014Z,1.67
2022-10-18T03:34:12.727Z,1.93
2022-10-18T03:36:41.292Z,2.00
2022-10-18T03:39:08.050Z,1.93
2022-10-18T03:41:34.737Z,1.63
2022-10-18T03:44:01.469Z,1.67
2022-10-18T03:46:28.206Z,1.83
2022-10-18T03:48:54.938Z,1.70
2022-10-18T03:51:21.645Z,1.73
2022-10-18T03:53:48.300Z,2.07
2022-10-18T03:56:15.007Z,1.80
2022-10-18T03:58:41.742Z,1.80
2022-10-18T04:01:08.459Z,1.60
2022-10-18T04:03:35.134Z,1.77
2022-10-18T04:06:03.492Z,1.90
2022-10-18T04:08:30.513Z,1.77
2022-10-18T04:10:57.220Z,1.60
2022-10-18T04:13:23.958Z,1.83
2022-10-18T04:15:50.660Z,1.63
2022-10-18T04:18:17.359Z,1.67
2022-10-18T04:20:44.039Z,1.70
2022-10-18T04:23:10.779Z,2.43
2022-10-18T04:25:37.505Z,2.00
2022-10-18T04:28:04.748Z,2.00
2022-10-18T04:30:31.438Z,1.70
2022-10-18T04:32:58.101Z,2.30
2022-10-18T04:35:26.032Z,1.90
2022-10-18T04:37:52.843Z,2.07
2022-10-18T04:40:20.131Z,2.13
2022-10-18T04:42:46.990Z,2.20
2022-10-18T04:45:13.812Z,1.83
2022-10-18T04:47:40.478Z,1.80
2022-10-18T04:50:07.717Z,2.20
2022-10-18T04:52:34.437Z,1.80
2022-10-18T04:55:01.132Z,1.77
2022-10-18T04:57:27.856Z,1.80
2022-10-18T04:59:54.545Z,1.47
2022-10-18T05:02:21.222Z,1.23
2022-10-18T05:04:47.947Z,1.60
2022-10-18T05:07:14.744Z,1.60
2022-10-18T05:09:41.404Z,1.33
2022-10-18T05:12:08.137Z,1.10
2022-10-18T05:14:35.245Z,1.33
2022-10-18T05:17:02.142Z,1.40
2022-10-18T05:19:28.915Z,1.07
2022-10-18T05:21:55.574Z,1.40
2022-10-18T05:24:24.208Z,1.60
2022-10-18T05:26:53.645Z,1.70
2022-10-18T05:29:20.409Z,1.80
2022-10-18T05:31:48.733Z,1.50
2022-10-18T05:34:15.705Z,1.40
2022-10-18T05:36:42.504Z,1.33
2022-10-18T05:39:09.242Z,1.53
2022-10-18T05:41:36.376Z,1.30
2022-10-18T05:44:06.227Z,1.57
2022-10-18T05:46:33.053Z,1.40
2022-10-18T05:48:59.795Z,1.50
2022-10-18T05:51:26.516Z,2.07
2022-10-18T05:53:54.678Z,1.70
2022-10-18T05:56:21.463Z,1.90
2022-10-18T05:58:50.600Z,1.57
2022-10-18T06:01:17.652Z,2.23
2022-10-18T06:03:44.413Z,2.03
2022-10-18T06:06:11.847Z,2.10
2022-10-18T06:08:39.056Z,2.30
2022-10-18T06:11:13.291Z,2.00
2022-10-18T06:13:44.277Z,2.20
2022-10-18T06:16:11.477Z,1.70
2022-10-18T06:18:38.266Z,2.03
2022-10-18T06:21:05.096Z,1.90
2022-10-18T06:23:31.822Z,2.23
2022-10-18T06:26:00.127Z,2.00
2022-10-18T06:28:27.182Z,1.80
2022-10-18T06:30:53.936Z,1.90
2022-10-18T06:33:20.870Z,2.03
2022-10-18T06:36:03.924Z,1.93
2022-10-18T06:56:31.933Z,1.83
2022-10-18T07:01:30.380Z,2.27
2022-10-18T07:03:57.201Z,2.30
2022-10-18T07:06:23.982Z,2.20
2022-10-18T07:08:50.976Z,3.27
2022-10-18T07:11:19.272Z,2.17
2022-10-18T07:13:46.041Z,2.77
2022-10-18T07:16:18.480Z,2.70
2022-10-18T07:18:50.634Z,2.40
2022-10-18T07:21:19.105Z,2.53
2022-10-18T07:23:46.373Z,3.10
2022-10-18T07:26:17.265Z,2.53
2022-10-18T07:28:44.806Z,2.40
2022-10-18T07:31:11.804Z,2.37
2022-10-18T07:33:38.572Z,2.53
2022-10-18T07:36:06.577Z,3.00
2022-10-18T07:38:33.295Z,2.33
2022-10-18T07:41:00.486Z,2.10
2022-10-18T07:43:27.243Z,2.43
2022-10-18T07:45:55.028Z,2.40
2022-10-18T07:48:21.762Z,2.47
2022-10-18T07:50:48.478Z,2.70
2022-10-18T07:53:15.214Z,2.57
2022-10-18T07:55:42.080Z,2.33
2022-10-18T07:58:08.828Z,2.00
2022-10-18T08:00:35.518Z,1.97
2022-10-18T08:03:02.300Z,1.83
2022-10-18T08:05:29.277Z,2.00
2022-10-18T08:07:56.107Z,1.83
2022-10-18T08:10:24.107Z,1.67
2022-10-18T08:12:54.358Z,1.77
2022-10-18T08:15:24.879Z,1.50
2022-10-18T08:17:52.022Z,1.67
2022-10-18T08:20:30.391Z,1.93
2022-10-18T08:23:00.069Z,1.77
2022-10-18T08:25:27.715Z,1.77
2022-10-18T08:27:54.431Z,2.20
2022-10-18T08:30:21.191Z,2.07
2022-10-18T08:32:47.856Z,2.33
2022-10-18T08:35:14.661Z,1.83
2022-10-18T08:37:41.446Z,1.40
2022-10-18T08:40:09.955Z,1.47
2022-10-18T08:43:01.667Z,1.60
2022-10-18T08:45:41.967Z,1.70
2022-10-18T08:48:21.910Z,1.53
2022-10-18T08:50:48.898Z,1.83
2022-10-18T08:53:26.839Z,1.80
2022-10-18T08:56:14.896Z,1.67
2022-10-18T08:58:43.977Z,1.80
2022-10-18T09:01:17.550Z,1.70
2022-10-18T09:04:38.614Z,1.97
2022-10-18T09:07:44.108Z,2.07
2022-10-18T09:10:38.552Z,1.93
2022-10-18T09:13:26.573Z,1.40
2022-10-18T09:15:57.508Z,1.63
2022-10-18T09:18:51.954Z,1.53
2022-10-18T09:21:42.441Z,1.90
2022-10-18T09:24:13.276Z,1.53
2022-10-18T09:26:47.976Z,1.00
2022-10-18T09:30:09.054Z,1.57
2022-10-18T09:32:50.123Z,1.70
2022-10-18T09:35:27.613Z,2.47
2022-10-18T09:37:59.483Z,1.70
2022-10-18T09:40:28.238Z,1.33
2022-10-18T09:42:56.145Z,1.83
2022-10-18T09:45:39.722Z,2.00
2022-10-18T09:48:06.632Z,1.70
2022-10-18T09:50:40.318Z,2.10
2022-10-18T09:53:27.184Z,1.50
2022-10-18T09:56:20.122Z,1.50
2022-10-18T09:58:48.206Z,1.53
2022-10-18T10:01:16.720Z,1.43
2022-10-18T10:03:43.442Z,1.37
2022-10-18T10:06:14.807Z,1.20
2022-10-18T10:08:47.645Z,1.83
2022-10-18T10:11:32.756Z,1.80
2022-10-18T10:14:23.074Z,1.60
2022-10-18T10:17:18.964Z,1.63
2022-10-18T10:20:02.186Z,1.50
2022-10-18T10:22:35.454Z,1.30
2022-10-18T10:25:02.328Z,1.00
2022-10-18T10:27:43.624Z,1.40
2022-10-18T10:30:38.630Z,1.70
2022-10-18T10:33:05.512Z,1.93
2022-10-18T10:38:27.472Z,1.53
2022-10-18T10:40:54.264Z,1.13
2022-10-18T10:43:44.031Z,1.07
2022-10-18T10:46:12.827Z,1.50
2022-10-18T10:49:04.244Z,1.73
2022-10-18T10:51:39.701Z,1.27
2022-10-18T10:54:16.936Z,1.20
2022-10-18T10:57:03.532Z,1.00
2022-10-18T10:59:32.387Z,1.10
2022-10-18T11:02:12.122Z,1.07
2022-10-18T11:04:38.845Z,1.10
2022-10-18T11:07:30.305Z,1.20
2022-10-18T11:10:24.727Z,1.23
2022-10-18T11:13:24.106Z,1.20
2022-10-18T11:15:59.350Z,1.07
2022-10-18T11:18:30.195Z,1.23
2022-10-18T11:21:17.685Z,1.00
2022-10-18T11:23:44.626Z,1.10
2022-10-18T11:26:11.278Z,1.10
2022-10-18T11:28:40.683Z,0.97
2022-10-18T11:31:25.911Z,1.10
2022-10-18T11:34:15.092Z,1.00
2022-10-18T11:36:54.564Z,0.90
2022-10-18T11:40:06.450Z,1.10
2022-10-18T11:42:35.663Z,1.03
2022-10-18T11:45:27.448Z,1.00
2022-10-18T11:48:15.495Z,1.30
2022-10-18T11:50:48.068Z,1.00
2022-10-18T11:53:31.147Z,0.87
2022-10-18T11:56:03.606Z,1.07
2022-10-18T11:58:42.427Z,0.80
2022-10-18T12:01:16.650Z,1.73
2022-10-18T12:04:03.818Z,0.77
2022-10-18T12:06:33.960Z,1.03
2022-10-18T12:09:15.728Z,1.00
2022-10-18T12:11:47.229Z,0.80
2022-10-18T12:14:24.545Z,0.83
2022-10-18T12:16:55.589Z,1.20
2022-10-18T12:19:29.971Z,0.90
2022-10-18T12:21:57.624Z,0.83
2022-10-18T12:24:27.690Z,0.70
2022-10-18T12:26:58.254Z,1.00
2022-10-18T12:29:31.316Z,0.87
2022-10-18T12:32:01.695Z,0.90
2022-10-18T12:34:32.487Z,0.87
2022-10-18T12:37:36.829Z,1.20
2022-10-18T12:40:11.144Z,1.00
2022-10-18T12:42:45.086Z,0.87
2022-10-18T12:45:35.375Z,0.97
2022-10-18T12:48:06.248Z,0.93
2022-10-18T12:50:39.260Z,0.83
2022-10-18T12:53:19.954Z,1.00
2022-10-18T12:55:48.847Z,1.30
2022-10-18T12:58:15.681Z,1.20
2022-10-18T13:00:42.331Z,1.10
2022-10-18T13:03:18.061Z,1.00
2022-10-18T13:05:55.853Z,1.00
2022-10-18T13:08:33.919Z,1.10
2022-10-18T13:11:09.821Z,0.90
2022-10-18T13:14:07.720Z,1.40
2022-10-18T13:16:45.797Z,1.13
2022-10-18T13:19:27.500Z,1.10
2022-10-18T13:22:09.440Z,1.10
2022-10-18T13:24:42.389Z,1.10
2022-10-18T13:27:43.304Z,1.13
2022-10-18T13:30:42.359Z,1.27
2022-10-18T13:33:46.168Z,1.13
2022-10-18T13:36:22.886Z,1.20
2022-10-18T13:38:50.521Z,1.27
2022-10-18T13:44:28.609Z,1.20
2022-10-18T13:46:55.277Z,1.37
2022-10-18T13:49:33.704Z,1.33
2022-10-18T13:52:22.321Z,1.43
2022-10-18T13:55:25.855Z,1.30
2022-10-18T13:58:24.648Z,1.20
2022-10-18T14:01:06.536Z,1.00
2022-10-18T14:06:33.595Z,1.10
2022-10-18T14:09:26.351Z,0.80
2022-10-18T14:12:35.908Z,1.20
2022-10-18T14:15:07.442Z,1.00
2022-10-18T14:17:43.009Z,1.10
2022-10-18T14:20:40.108Z,1.30
2022-10-18T14:23:29.889Z,1.17
2022-10-18T14:26:07.881Z,1.07
2022-10-18T14:28:55.093Z,1.40
2022-10-18T14:31:21.398Z,1.13
2022-10-18T14:33:58.599Z,0.60
2022-10-18T14:36:31.062Z,0.93
2022-10-18T14:39:01.659Z,1.23
2022-10-18T14:41:32.803Z,1.13
2022-10-18T14:44:14.798Z,0.80
2022-10-18T14:46:45.582Z,1.13
2022-10-18T14:49:12.856Z,1.10
2022-10-18T14:51:40.845Z,0.93
2022-10-18T14:54:09.629Z,1.77
2022-10-18T14:56:39.952Z,1.40
2022-10-18T14:59:21.567Z,2.27
2022-10-18T15:01:55.314Z,2.27
2022-10-18T15:04:27.650Z,2.33
2022-10-18T15:06:55.399Z,1.40
2022-10-18T15:09:22.445Z,1.37
2022-10-18T15:11:49.173Z,1.17
2022-10-18T15:14:18.119Z,1.37
2022-10-18T15:16:44.851Z,1.03
2022-10-18T15:19:14.608Z,1.00
2022-10-18T15:22:27.201Z,1.33
2022-10-18T15:25:06.055Z,1.17
2022-10-18T15:27:35.619Z,1.40
2022-10-18T15:30:14.725Z,1.20
2022-10-18T15:32:48.779Z,1.30
2022-10-18T15:35:34.866Z,1.20
2022-10-18T15:38:13.096Z,2.77
2022-10-18T15:40:40.791Z,4.20
2022-10-18T15:43:27.835Z,3.30
2022-10-18T15:46:06.790Z,5.77
2022-10-18T15:48:39.049Z,5.90
2022-10-18T15:51:07.419Z,5.30
2022-10-18T15:53:51.800Z,4.23
2022-10-18T15:56:45.086Z,2.60
2022-10-18T15:59:22.854Z,2.83
2022-10-18T16:01:49.691Z,2.13
2022-10-18T16:04:31.160Z,2.30
2022-10-18T16:06:57.952Z,2.33
2022-10-18T16:09:25.988Z,2.33
2022-10-18T16:11:56.732Z,2.07
2022-10-18T16:14:24.509Z,1.87
2022-10-18T16:16:55.541Z,2.50
2022-10-18T16:19:23.126Z,1.80
2022-10-18T16:21:50.238Z,1.80
2022-10-18T16:24:17.041Z,1.80
2022-10-18T16:26:43.809Z,1.60
2022-10-18T16:29:15.835Z,1.83
2022-10-18T16:31:42.777Z,1.63
2022-10-18T16:34:12.121Z,1.60
2022-10-18T16:36:39.038Z,1.87
2022-10-18T16:39:07.759Z,1.60
2022-10-18T16:41:34.488Z,1.50
2022-10-18T16:44:01.181Z,1.33
2022-10-18T16:46:29.321Z,1.40
2022-10-18T16:48:56.190Z,1.63
2022-10-18T16:51:22.977Z,1.50
2022-10-18T16:53:49.767Z,1.50
2022-10-18T16:56:20.320Z,1.50
2022-10-18T16:58:47.275Z,1.30
2022-10-18T17:01:15.555Z,1.37
2022-10-18T17:03:42.593Z,1.57
2022-10-18T17:06:20.055Z,1.43
2022-10-18T17:08:46.809Z,1.50
2022-10-18T17:11:14.728Z,1.30
2022-10-18T17:13:41.504Z,1.87
2022-10-18T17:16:11.397Z,2.27
2022-10-18T17:18:38.148Z,1.77
2022-10-18T17:21:04.982Z,2.10
2022-10-18T17:23:31.744Z,1.20
2022-10-18T17:26:05.387Z,1.57
2022-10-18T17:28:41.946Z,1.40
2022-10-18T17:31:08.663Z,1.77
2022-10-18T17:33:35.639Z,1.40
2022-10-18T17:36:02.575Z,1.50
2022-10-18T17:38:29.246Z,1.97
2022-10-18T17:40:57.073Z,2.10
2022-10-18T17:43:23.790Z,1.70
2022-10-18T17:45:54.155Z,1.87
2022-10-18T17:48:21.014Z,2.07
2022-10-18T17:50:47.687Z,1.83
2022-10-18T17:53:14.472Z,2.50
2022-10-18T17:55:41.151Z,2.20
2022-10-18T17:58:07.974Z,2.93
2022-10-18T18:00:34.733Z,2.40
2022-10-18T18:03:01.519Z,2.50
2022-10-18T18:05:32.093Z,2.47
2022-10-18T18:08:03.579Z,3.00
2022-10-18T18:10:33.172Z,2.30
2022-10-18T18:13:00.220Z,2.30
2022-10-18T18:15:26.994Z,3.20
2022-10-18T18:17:57.176Z,2.27
2022-10-18T18:20:24.830Z,2.17
2022-10-18T18:22:51.785Z,2.03
2022-10-18T18:25:18.571Z,2.37
2022-10-18T18:27:45.300Z,1.90
2022-10-18T18:30:12.380Z,2.90
2022-10-18T18:32:39.096Z,2.23
2022-10-18T18:35:06.195Z,1.70
2022-10-18T18:37:32.944Z,2.13
2022-10-18T18:39:59.693Z,2.30
2022-10-18T18:42:26.415Z,2.20
2022-10-18T18:44:53.147Z,2.40
2022-10-18T18:47:21.939Z,1.93
2022-10-18T18:49:48.989Z,2.00
2022-10-18T18:52:15.667Z,2.40
2022-10-18T18:54:42.402Z,2.23
2022-10-18T18:57:09.069Z,2.10
2022-10-18T18:59:35.788Z,2.40
2022-10-18T19:02:02.475Z,2.20
2022-10-18T19:04:29.198Z,2.70
2022-10-18T19:06:55.857Z,2.40
2022-10-18T19:09:22.984Z,2.07
2022-10-18T19:11:54.098Z,2.60
2022-10-18T19:16:57.633Z,2.70
2022-10-18T19:19:28.285Z,2.40
2022-10-18T19:21:59.689Z,2.40
2022-10-18T19:24:27.521Z,2.03
2022-10-18T19:26:54.945Z,2.30
2022-10-18T19:29:23.627Z,3.10
2022-10-18T19:31:51.514Z,2.40
2022-10-18T19:34:18.518Z,2.30
2022-10-18T19:36:46.228Z,2.57
2022-10-18T19:39:23.841Z,2.20
2022-10-18T19:41:52.013Z,2.40
2022-10-18T19:44:19.160Z,2.40
2022-10-18T19:46:46.164Z,2.10
2022-10-18T19:49:12.890Z,1.90
2022-10-18T19:51:39.667Z,2.37
2022-10-18T19:54:06.340Z,1.90
2022-10-18T19:56:33.204Z,2.37
2022-10-18T19:59:00.031Z,1.93
2022-10-18T20:01:27.447Z,2.10
2022-10-18T20:03:54.504Z,2.60
2022-10-18T20:06:21.639Z,2.33
2022-10-18T20:08:48.458Z,2.37
2022-10-18T20:11:17.028Z,2.10
2022-10-18T20:13:43.832Z,2.30
2022-10-18T20:16:11.467Z,1.97
2022-10-18T20:18:38.245Z,2.00
2022-10-18T20:21:06.264Z,1.80
2022-10-18T20:23:34.620Z,2.80
2022-10-18T20:26:02.951Z,2.60
2022-10-18T20:28:29.796Z,1.97
2022-10-18T20:31:00.405Z,2.63
2022-10-18T20:33:27.160Z,2.53
2022-10-18T20:35:54.305Z,2.70
2022-10-18T20:38:21.059Z,2.40
2022-10-18T20:40:47.750Z,2.40
2022-10-18T20:43:14.457Z,2.47
2022-10-18T20:45:41.184Z,2.13
2022-10-18T20:48:07.923Z,2.43
2022-10-18T20:50:34.573Z,2.47
2022-10-18T20:53:01.246Z,2.00
2022-10-18T20:55:29.098Z,2.37
2022-10-18T20:57:55.747Z,2.57
2022-10-18T21:00:22.473Z,2.73
2022-10-18T21:02:49.183Z,2.60
2022-10-18T21:05:16.578Z,2.40
2022-10-18T21:07:43.365Z,2.60
2022-10-18T21:10:10.089Z,2.70
2022-10-18T21:12:37.178Z,2.30
2022-10-18T21:15:04.508Z,2.47
2022-10-18T21:17:31.266Z,2.33
2022-10-18T21:19:57.923Z,2.40
2022-10-18T21:22:24.739Z,2.23
2022-10-18T21:24:51.468Z,2.13
2022-10-18T21:27:18.205Z,2.23
2022-10-18T21:29:44.911Z,2.43
2022-10-18T21:32:11.605Z,2.50
2022-10-18T21:34:38.328Z,2.40
2022-10-18T21:37:05.139Z,1.80
2022-10-18T21:39:31.900Z,2.50
2022-10-18T21:41:58.666Z,2.20
2022-10-18T21:44:25.479Z,2.50
2022-10-18T21:46:52.316Z,2.50
2022-10-18T21:49:19.232Z,2.87
2022-10-18T21:51:45.994Z,2.77
2022-10-18T21:54:13.861Z,2.67
2022-10-18T21:56:40.594Z,2.67
2022-10-18T21:59:07.493Z,2.80
2022-10-18T22:01:36.236Z,2.83
2022-10-18T22:04:04.041Z,2.63
2022-10-18T22:06:32.582Z,2.77
2022-10-18T22:09:00.881Z,2.30
2022-10-18T22:11:33.161Z,2.60
2022-10-18T22:13:59.842Z,2.57
2022-10-18T22:16:26.569Z,2.60
2022-10-18T22:18:56.055Z,3.20
2022-10-18T22:21:22.734Z,2.97
2022-10-18T22:23:51.590Z,3.17
2022-10-18T22:26:22.096Z,2.07
2022-10-18T22:28:53.318Z,2.17
2022-10-18T22:31:21.140Z,2.00
2022-10-18T22:33:51.985Z,1.67
2022-10-18T22:36:18.678Z,2.10
2022-10-18T22:38:45.370Z,1.70
2022-10-18T22:41:12.172Z,1.67
2022-10-18T22:43:38.979Z,1.90
2022-10-18T22:46:10.375Z,1.70
2022-10-18T22:48:37.100Z,1.67
2022-10-18T22:51:03.964Z,2.03
2022-10-18T22:53:31.475Z,2.00
2022-10-18T22:55:58.141Z,2.20
2022-10-18T22:58:24.849Z,1.90
2022-10-18T23:00:51.561Z,2.27
2022-10-18T23:03:18.742Z,2.03
2022-10-18T23:05:46.086Z,2.00
2022-10-18T23:08:13.461Z,1.73
2022-10-18T23:10:43.102Z,2.10
2022-10-18T23:13:10.722Z,2.50
2022-10-18T23:15:39.110Z,1.97
2022-10-18T23:18:06.063Z,2.10
2022-10-18T23:20:32.810Z,2.20
2022-10-18T23:22:59.684Z,1.63
2022-10-18T23:25:27.209Z,1.80
2022-10-18T23:27:54.071Z,2.23
2022-10-18T23:30:20.914Z,2.27
2022-10-18T23:32:47.604Z,2.83
2022-10-18T23:35:14.360Z,2.43
2022-10-18T23:37:41.041Z,2.47
2022-10-18T23:40:08.720Z,2.53
2022-10-18T23:42:35.421Z,2.27
2022-10-18T23:45:02.137Z,2.27
2022-10-18T23:47:28.853Z,2.70
2022-10-18T23:49:57.255Z,2.17
2022-10-18T23:52:24.824Z,1.90
2022-10-18T23:54:51.517Z,2.07
2022-10-18T23:57:18.352Z,2.50
2022-10-18T23:59:45.044Z,2.07
